IJX weather

Jacksonville Municipal Airport
Jacksonville, Illinois, United States

Public forecast

Using degrees Fahrenheit for public forecast. Weather courtesy of forecast.io.

Current aviation weather report (METAR) for Jacksonville Municipal Airport

Retrieved 2020/04/02 06:35 UTC (8 minutes ago):

KIJX 020635Z AUTO 15006KT 10SM CLR 07/03 A3008 RMK AO2 T00710030

Closest aviation forecast (TAF) to Jacksonville Municipal Airport

Closest forecast is Abraham Lincoln Capital Airport, 26.2 nm (48.5 km) E. Retrieved 2020/04/02 06:22 UTC (21 minutes ago):

TAF KSPI 020520Z 0206/0306 13006KT P6SM SCT250 FM021400 15008KT P6SM BKN250 FM022000 14012KT P6SM BKN120